EWG7VK EDDH-ESSA
Flight info
| Callsign | EWG7VK |
|---|---|
| Flight time | 1h 20m |
| Altitude | 37000 |
| Route | LUGEG3C LUGEG P605 MEGAR DCT KUBIS DCT MIKNA N851 PELUP Z226 NILUG |
| Aircraft | A320/M-SDE3FGHIRWY/LB1 |
Departure
| Time | 2026-05-08 08:19 |
|---|---|
| Airport | Hamburg Helmut Schmidt Airport (EDDH) |
Arrival
| Time | 2026-05-08 09:40 |
|---|---|
| Airport | Stockholm-Arlanda Airport (ESSA) |
| Time | Latitude | Longitude | Altitude | Speed | Heading |
|---|---|---|---|---|---|
| 2026-05-08 07:49 | 53.63294 | 10.00358 | 51 ft | 0 kts | 87° |
| 2026-05-08 08:08 | 53.63294 | 10.00337 | 51 ft | 3 kts | 87° |
| 2026-05-08 08:08 | 53.63292 | 10.00303 | 51 ft | 3 kts | 87° |
| 2026-05-08 08:09 | 53.63291 | 10.00269 | 51 ft | 3 kts | 87° |
| 2026-05-08 08:09 | 53.63290 | 10.00235 | 51 ft | 3 kts | 87° |
| 2026-05-08 08:09 | 53.63289 | 10.00206 | 51 ft | 3 kts | 95° |
| 2026-05-08 08:09 | 53.63294 | 10.00180 | 49 ft | 3 kts | 145° |
| 2026-05-08 08:10 | 53.63310 | 10.00170 | 51 ft | 2 kts | 176° |
| 2026-05-08 08:10 | 53.63319 | 10.00169 | 51 ft | 0 kts | 176° |
| 2026-05-08 08:12 | 53.63310 | 10.00170 | 47 ft | 5 kts | 176° |
| 2026-05-08 08:12 | 53.63250 | 10.00171 | 51 ft | 10 kts | 192° |
| 2026-05-08 08:12 | 53.63206 | 10.00095 | 51 ft | 9 kts | 233° |
| 2026-05-08 08:12 | 53.63172 | 10.00017 | 50 ft | 8 kts | 233° |
| 2026-05-08 08:13 | 53.63127 | 9.99913 | 50 ft | 14 kts | 247° |
| 2026-05-08 08:13 | 53.63192 | 9.99788 | 50 ft | 15 kts | 332° |
| 2026-05-08 08:13 | 53.63218 | 9.99655 | 48 ft | 13 kts | 232° |
| 2026-05-08 08:13 | 53.63157 | 9.99540 | 49 ft | 15 kts | 231° |
| 2026-05-08 08:14 | 53.63091 | 9.99383 | 50 ft | 17 kts | 236° |
| 2026-05-08 08:14 | 53.63026 | 9.99232 | 50 ft | 15 kts | 231° |
| 2026-05-08 08:14 | 53.62963 | 9.99106 | 50 ft | 13 kts | 230° |
| 2026-05-08 08:14 | 53.62906 | 9.98989 | 50 ft | 14 kts | 231° |
| 2026-05-08 08:15 | 53.62831 | 9.98836 | 50 ft | 20 kts | 230° |
| 2026-05-08 08:15 | 53.62739 | 9.98651 | 49 ft | 21 kts | 230° |
| 2026-05-08 08:15 | 53.62640 | 9.98453 | 50 ft | 23 kts | 230° |
| 2026-05-08 08:15 | 53.62536 | 9.98241 | 50 ft | 24 kts | 229° |
| 2026-05-08 08:16 | 53.62406 | 9.98044 | 48 ft | 26 kts | 229° |
| 2026-05-08 08:16 | 53.62289 | 9.97807 | 50 ft | 27 kts | 230° |
| 2026-05-08 08:16 | 53.62165 | 9.97557 | 50 ft | 28 kts | 230° |
| 2026-05-08 08:16 | 53.62052 | 9.97329 | 50 ft | 25 kts | 230° |
| 2026-05-08 08:17 | 53.61935 | 9.97094 | 50 ft | 27 kts | 231° |
| 2026-05-08 08:17 | 53.61814 | 9.96850 | 50 ft | 28 kts | 230° |
| 2026-05-08 08:17 | 53.61697 | 9.96613 | 50 ft | 20 kts | 231° |
| 2026-05-08 08:17 | 53.61680 | 9.96444 | 49 ft | 13 kts | 302° |
| 2026-05-08 08:18 | 53.61761 | 9.96420 | 49 ft | 12 kts | 6° |
| 2026-05-08 08:18 | 53.61849 | 9.96437 | 47 ft | 12 kts | 16° |
| 2026-05-08 08:18 | 53.61889 | 9.96505 | 47 ft | 0 kts | 49° |
| 2026-05-08 08:18 | 53.61924 | 9.96575 | 47 ft | 37 kts | 50° |
| 2026-05-08 08:19 | 53.62251 | 9.97235 | 48 ft | 105 kts | 50° |
| 2026-05-08 08:19 | 53.62840 | 9.98427 | 49 ft | 156 kts | 51° |
| 2026-05-08 08:19 | 53.63552 | 9.99910 | 552 ft | 164 kts | 56° |
| 2026-05-08 08:19 | 53.64271 | 10.01410 | 1295 ft | 165 kts | 54° |
| 2026-05-08 08:20 | 53.64991 | 10.02919 | 2021 ft | 168 kts | 55° |
| 2026-05-08 08:20 | 53.65768 | 10.04557 | 2385 ft | 190 kts | 55° |
| 2026-05-08 08:20 | 53.66629 | 10.06376 | 2899 ft | 204 kts | 55° |
| 2026-05-08 08:20 | 53.67516 | 10.08242 | 3815 ft | 204 kts | 54° |
| 2026-05-08 08:21 | 53.68403 | 10.10107 | 4758 ft | 204 kts | 54° |
| 2026-05-08 08:21 | 53.69295 | 10.11984 | 5615 ft | 207 kts | 54° |
| 2026-05-08 08:21 | 53.70204 | 10.13900 | 6379 ft | 212 kts | 53° |
| 2026-05-08 08:21 | 53.71140 | 10.15873 | 7079 ft | 218 kts | 53° |
| 2026-05-08 08:22 | 53.72110 | 10.17957 | 7546 ft | 237 kts | 54° |
| 2026-05-08 08:22 | 53.73160 | 10.20274 | 7917 ft | 259 kts | 54° |
| 2026-05-08 08:22 | 53.74278 | 10.22752 | 8596 ft | 270 kts | 54° |
| 2026-05-08 08:22 | 53.75430 | 10.25302 | 9380 ft | 276 kts | 54° |
| 2026-05-08 08:23 | 53.76606 | 10.27905 | 10198 ft | 281 kts | 54° |
| 2026-05-08 08:23 | 53.77828 | 10.30604 | 10633 ft | 300 kts | 53° |
| 2026-05-08 08:23 | 53.79145 | 10.33517 | 10924 ft | 322 kts | 53° |
| 2026-05-08 08:23 | 53.80528 | 10.36579 | 11538 ft | 331 kts | 53° |
| 2026-05-08 08:24 | 53.81937 | 10.39704 | 12260 ft | 336 kts | 53° |
| 2026-05-08 08:24 | 53.83366 | 10.42876 | 12998 ft | 341 kts | 53° |
| 2026-05-08 08:24 | 53.84813 | 10.46095 | 13708 ft | 346 kts | 53° |
| 2026-05-08 08:24 | 53.86281 | 10.49363 | 14377 ft | 351 kts | 53° |
| 2026-05-08 08:25 | 53.87766 | 10.52673 | 14997 ft | 355 kts | 53° |
| 2026-05-08 08:25 | 53.89264 | 10.56014 | 15651 ft | 358 kts | 53° |
| 2026-05-08 08:25 | 53.90779 | 10.59398 | 16290 ft | 362 kts | 53° |
| 2026-05-08 08:25 | 53.92307 | 10.62820 | 16919 ft | 366 kts | 53° |
| 2026-05-08 08:26 | 53.93857 | 10.66272 | 17551 ft | 370 kts | 51° |
| 2026-05-08 08:26 | 53.95589 | 10.69531 | 18146 ft | 374 kts | 46° |
| 2026-05-08 08:26 | 53.97376 | 10.72773 | 18747 ft | 377 kts | 46° |
| 2026-05-08 08:26 | 53.99179 | 10.76048 | 19253 ft | 382 kts | 46° |
| 2026-05-08 08:27 | 54.00999 | 10.79355 | 19799 ft | 385 kts | 46° |
| 2026-05-08 08:27 | 54.02832 | 10.82694 | 20328 ft | 388 kts | 46° |
| 2026-05-08 08:27 | 54.04683 | 10.86074 | 20840 ft | 392 kts | 46° |
| 2026-05-08 08:27 | 54.06543 | 10.89473 | 21365 ft | 395 kts | 46° |
| 2026-05-08 08:28 | 54.08423 | 10.92915 | 21845 ft | 398 kts | 46° |
| 2026-05-08 08:28 | 54.10291 | 10.96337 | 22359 ft | 401 kts | 46° |
| 2026-05-08 08:28 | 54.12198 | 10.99838 | 22834 ft | 405 kts | 46° |
| 2026-05-08 08:28 | 54.14114 | 11.03372 | 23357 ft | 407 kts | 46° |
| 2026-05-08 08:29 | 54.16039 | 11.06937 | 23814 ft | 411 kts | 47° |
| 2026-05-08 08:29 | 54.17977 | 11.10539 | 24230 ft | 413 kts | 47° |
| 2026-05-08 08:29 | 54.19923 | 11.14162 | 24625 ft | 416 kts | 47° |
| 2026-05-08 08:29 | 54.21881 | 11.17815 | 25028 ft | 418 kts | 47° |
| 2026-05-08 08:30 | 54.23846 | 11.21490 | 25424 ft | 420 kts | 47° |
| 2026-05-08 08:30 | 54.25821 | 11.25187 | 25839 ft | 422 kts | 47° |
| 2026-05-08 08:30 | 54.29792 | 11.32636 | 26617 ft | 426 kts | 47° |
| 2026-05-08 08:31 | 54.31788 | 11.36387 | 27007 ft | 428 kts | 47° |
| 2026-05-08 08:31 | 54.33792 | 11.40168 | 27373 ft | 430 kts | 47° |
| 2026-05-08 08:31 | 54.35803 | 11.43974 | 27759 ft | 432 kts | 47° |
| 2026-05-08 08:31 | 54.37829 | 11.47807 | 28100 ft | 435 kts | 47° |
| 2026-05-08 08:32 | 54.39868 | 11.51656 | 28478 ft | 436 kts | 47° |
| 2026-05-08 08:32 | 54.41915 | 11.55517 | 28819 ft | 439 kts | 47° |
| 2026-05-08 08:32 | 54.43972 | 11.59404 | 29199 ft | 441 kts | 47° |
| 2026-05-08 08:32 | 54.46085 | 11.63236 | 29543 ft | 443 kts | 43° |
| 2026-05-08 08:33 | 54.48480 | 11.66560 | 29981 ft | 443 kts | 35° |
| 2026-05-08 08:33 | 54.51084 | 11.69415 | 30317 ft | 445 kts | 33° |
| 2026-05-08 08:33 | 54.53706 | 11.72243 | 30587 ft | 446 kts | 33° |
| 2026-05-08 08:33 | 54.56341 | 11.75096 | 30843 ft | 448 kts | 33° |
| 2026-05-08 08:34 | 54.58983 | 11.77965 | 31114 ft | 450 kts | 33° |
| 2026-05-08 08:34 | 54.61637 | 11.80853 | 31362 ft | 452 kts | 33° |
| 2026-05-08 08:34 | 54.63396 | 11.82772 | 31522 ft | 453 kts | 33° |
| 2026-05-08 08:34 | 54.66066 | 11.85686 | 31844 ft | 453 kts | 33° |
| 2026-05-08 08:35 | 54.68725 | 11.88594 | 32184 ft | 453 kts | 33° |
| 2026-05-08 08:35 | 54.71379 | 11.91502 | 32611 ft | 450 kts | 34° |
| 2026-05-08 08:35 | 54.74017 | 11.94397 | 33005 ft | 449 kts | 33° |
| 2026-05-08 08:35 | 54.76649 | 11.97291 | 33370 ft | 448 kts | 33° |
| 2026-05-08 08:36 | 54.79277 | 12.00182 | 33736 ft | 447 kts | 33° |
| 2026-05-08 08:36 | 54.81898 | 12.03069 | 34115 ft | 446 kts | 33° |
| 2026-05-08 08:36 | 54.84513 | 12.05952 | 34436 ft | 445 kts | 33° |
| 2026-05-08 08:36 | 54.87125 | 12.08838 | 34699 ft | 446 kts | 33° |
| 2026-05-08 08:37 | 54.89745 | 12.11737 | 34916 ft | 447 kts | 33° |
| 2026-05-08 08:37 | 54.92368 | 12.14644 | 35144 ft | 448 kts | 33° |
| 2026-05-08 08:37 | 54.94990 | 12.17557 | 35408 ft | 447 kts | 33° |
| 2026-05-08 08:37 | 54.97611 | 12.20474 | 35645 ft | 448 kts | 33° |
| 2026-05-08 08:38 | 55.00238 | 12.23405 | 35840 ft | 449 kts | 33° |
| 2026-05-08 08:38 | 55.02873 | 12.26345 | 36030 ft | 450 kts | 33° |
| 2026-05-08 08:38 | 55.05515 | 12.29296 | 36219 ft | 451 kts | 33° |
| 2026-05-08 08:38 | 55.08161 | 12.32256 | 36413 ft | 452 kts | 33° |
| 2026-05-08 08:39 | 55.10814 | 12.35224 | 36602 ft | 453 kts | 33° |
| 2026-05-08 08:39 | 55.13464 | 12.38195 | 36774 ft | 454 kts | 33° |
| 2026-05-08 08:39 | 55.16131 | 12.41189 | 36988 ft | 455 kts | 33° |
| 2026-05-08 08:39 | 55.18794 | 12.44189 | 37176 ft | 455 kts | 33° |
| 2026-05-08 08:40 | 55.24102 | 12.50214 | 37272 ft | 455 kts | 33° |
| 2026-05-08 08:40 | 55.29353 | 12.56383 | 37277 ft | 454 kts | 34° |
| 2026-05-08 08:41 | 55.34577 | 12.62603 | 37280 ft | 454 kts | 34° |
| 2026-05-08 08:41 | 55.39811 | 12.68816 | 37281 ft | 454 kts | 34° |
| 2026-05-08 08:42 | 55.45040 | 12.75023 | 37274 ft | 453 kts | 34° |
| 2026-05-08 08:42 | 55.50265 | 12.81262 | 37276 ft | 454 kts | 34° |
| 2026-05-08 08:43 | 55.55489 | 12.87509 | 37292 ft | 453 kts | 34° |
| 2026-05-08 08:43 | 55.60708 | 12.93776 | 37291 ft | 454 kts | 34° |
| 2026-05-08 08:44 | 55.65889 | 13.00013 | 37291 ft | 453 kts | 34° |
| 2026-05-08 08:44 | 55.71099 | 13.06308 | 37290 ft | 453 kts | 35° |
| 2026-05-08 08:45 | 55.76306 | 13.12631 | 37288 ft | 453 kts | 35° |
| 2026-05-08 08:45 | 55.81515 | 13.18961 | 37295 ft | 453 kts | 34° |
| 2026-05-08 08:46 | 55.86719 | 13.25294 | 37293 ft | 453 kts | 35° |
| 2026-05-08 08:46 | 55.91909 | 13.31653 | 37304 ft | 453 kts | 35° |
| 2026-05-08 08:47 | 55.97098 | 13.38020 | 37309 ft | 452 kts | 35° |
| 2026-05-08 08:47 | 56.02274 | 13.44392 | 37306 ft | 452 kts | 35° |
| 2026-05-08 08:48 | 56.07440 | 13.50780 | 37303 ft | 452 kts | 36° |
| 2026-05-08 08:48 | 56.12603 | 13.57198 | 37307 ft | 451 kts | 36° |
| 2026-05-08 08:49 | 56.17756 | 13.63618 | 37308 ft | 451 kts | 36° |
| 2026-05-08 08:49 | 56.22903 | 13.70043 | 37305 ft | 450 kts | 36° |
| 2026-05-08 08:50 | 56.28043 | 13.76484 | 37300 ft | 450 kts | 36° |
| 2026-05-08 08:50 | 56.33178 | 13.82945 | 37302 ft | 450 kts | 36° |
| 2026-05-08 08:51 | 56.38314 | 13.89420 | 37308 ft | 450 kts | 36° |
| 2026-05-08 08:51 | 56.43439 | 13.95902 | 37309 ft | 449 kts | 36° |
| 2026-05-08 08:52 | 56.48544 | 14.02399 | 37317 ft | 449 kts | 37° |
| 2026-05-08 08:52 | 56.53647 | 14.08905 | 37316 ft | 448 kts | 36° |
| 2026-05-08 08:53 | 56.58742 | 14.15409 | 37318 ft | 448 kts | 36° |
| 2026-05-08 08:53 | 56.63827 | 14.21940 | 37318 ft | 447 kts | 37° |
| 2026-05-08 08:54 | 56.68906 | 14.28474 | 37311 ft | 447 kts | 37° |
| 2026-05-08 08:54 | 56.73978 | 14.35023 | 37310 ft | 447 kts | 37° |
| 2026-05-08 08:55 | 56.79050 | 14.41577 | 37314 ft | 447 kts | 37° |
| 2026-05-08 08:55 | 56.84111 | 14.48161 | 37307 ft | 447 kts | 37° |
| 2026-05-08 08:56 | 56.89166 | 14.54761 | 37301 ft | 447 kts | 37° |
| 2026-05-08 08:56 | 56.94221 | 14.61379 | 37300 ft | 447 kts | 37° |
| 2026-05-08 08:57 | 56.99275 | 14.68018 | 37315 ft | 447 kts | 37° |
| 2026-05-08 08:57 | 57.04316 | 14.74680 | 37314 ft | 447 kts | 37° |
| 2026-05-08 08:58 | 57.09362 | 14.81355 | 37310 ft | 447 kts | 37° |
| 2026-05-08 08:58 | 57.14408 | 14.88039 | 37312 ft | 447 kts | 37° |
| 2026-05-08 08:59 | 57.19193 | 14.95285 | 37317 ft | 445 kts | 44° |
| 2026-05-08 08:59 | 57.23760 | 15.03020 | 37312 ft | 445 kts | 44° |
| 2026-05-08 09:00 | 57.28295 | 15.10813 | 37316 ft | 445 kts | 44° |
| 2026-05-08 09:00 | 57.32838 | 15.18596 | 37316 ft | 446 kts | 44° |
| 2026-05-08 09:01 | 57.37400 | 15.26375 | 37320 ft | 446 kts | 44° |
| 2026-05-08 09:01 | 57.41955 | 15.34181 | 37322 ft | 446 kts | 44° |
| 2026-05-08 09:02 | 57.46504 | 15.42023 | 37328 ft | 446 kts | 44° |
| 2026-05-08 09:02 | 57.51016 | 15.49829 | 37328 ft | 446 kts | 45° |
| 2026-05-08 09:03 | 57.55560 | 15.57712 | 37331 ft | 447 kts | 45° |
| 2026-05-08 09:03 | 57.60130 | 15.65673 | 37331 ft | 447 kts | 44° |
| 2026-05-08 09:04 | 57.64641 | 15.73559 | 37336 ft | 447 kts | 45° |
| 2026-05-08 09:04 | 57.69209 | 15.81573 | 37337 ft | 448 kts | 44° |
| 2026-05-08 09:05 | 57.73714 | 15.89496 | 37345 ft | 448 kts | 44° |
| 2026-05-08 09:05 | 57.78250 | 15.97505 | 37343 ft | 448 kts | 44° |
| 2026-05-08 09:06 | 57.82772 | 16.05529 | 37352 ft | 447 kts | 45° |
| 2026-05-08 09:06 | 57.87310 | 16.13628 | 37354 ft | 447 kts | 45° |
| 2026-05-08 09:07 | 57.91787 | 16.21623 | 37356 ft | 447 kts | 45° |
| 2026-05-08 09:07 | 57.96297 | 16.29694 | 37355 ft | 447 kts | 45° |
| 2026-05-08 09:08 | 57.98550 | 16.33746 | 37126 ft | 447 kts | 45° |
| 2026-05-08 09:08 | 58.00798 | 16.37803 | 36869 ft | 447 kts | 45° |
| 2026-05-08 09:08 | 58.03042 | 16.41855 | 36608 ft | 446 kts | 45° |
| 2026-05-08 09:08 | 58.05278 | 16.45897 | 36353 ft | 445 kts | 45° |
| 2026-05-08 09:09 | 58.07493 | 16.49907 | 36098 ft | 444 kts | 45° |
| 2026-05-08 09:09 | 58.09725 | 16.53952 | 35351 ft | 447 kts | 45° |
| 2026-05-08 09:09 | 58.12183 | 16.57478 | 35019 ft | 440 kts | 32° |
| 2026-05-08 09:09 | 58.14789 | 16.60347 | 34921 ft | 426 kts | 32° |
| 2026-05-08 09:10 | 58.17308 | 16.63141 | 34827 ft | 413 kts | 32° |
| 2026-05-08 09:10 | 58.19754 | 16.65861 | 34738 ft | 401 kts | 32° |
| 2026-05-08 09:10 | 58.24575 | 16.71230 | 34567 ft | 403 kts | 32° |
| 2026-05-08 09:11 | 58.29424 | 16.76627 | 34414 ft | 403 kts | 32° |
| 2026-05-08 09:11 | 58.31842 | 16.79316 | 34306 ft | 403 kts | 32° |
| 2026-05-08 09:11 | 58.34255 | 16.82014 | 34196 ft | 402 kts | 32° |
| 2026-05-08 09:12 | 58.39061 | 16.87413 | 34009 ft | 400 kts | 32° |
| 2026-05-08 09:12 | 58.41458 | 16.90110 | 33908 ft | 399 kts | 32° |
| 2026-05-08 09:12 | 58.43849 | 16.92794 | 33814 ft | 399 kts | 32° |
| 2026-05-08 09:13 | 58.48630 | 16.98156 | 33618 ft | 399 kts | 31° |
| 2026-05-08 09:13 | 58.53432 | 17.03572 | 33427 ft | 401 kts | 31° |
| 2026-05-08 09:14 | 58.55834 | 17.06291 | 33326 ft | 401 kts | 31° |
| 2026-05-08 09:14 | 58.58235 | 17.09015 | 33236 ft | 400 kts | 31° |
| 2026-05-08 09:14 | 58.60633 | 17.11740 | 32996 ft | 401 kts | 31° |
| 2026-05-08 09:14 | 58.63029 | 17.14469 | 32481 ft | 400 kts | 31° |
| 2026-05-08 09:15 | 58.65414 | 17.17189 | 31981 ft | 397 kts | 31° |
| 2026-05-08 09:15 | 58.67781 | 17.19896 | 31488 ft | 396 kts | 31° |
| 2026-05-08 09:15 | 58.70144 | 17.22597 | 30994 ft | 394 kts | 31° |
| 2026-05-08 09:15 | 58.72488 | 17.25277 | 30508 ft | 392 kts | 31° |
| 2026-05-08 09:16 | 58.74826 | 17.27953 | 29982 ft | 389 kts | 30° |
| 2026-05-08 09:16 | 58.77138 | 17.30608 | 29505 ft | 385 kts | 30° |
| 2026-05-08 09:16 | 58.79431 | 17.33247 | 29042 ft | 382 kts | 30° |
| 2026-05-08 09:16 | 58.81698 | 17.35856 | 28583 ft | 378 kts | 30° |
| 2026-05-08 09:17 | 58.83945 | 17.38448 | 28149 ft | 374 kts | 30° |
| 2026-05-08 09:17 | 58.86170 | 17.41020 | 27714 ft | 371 kts | 30° |
| 2026-05-08 09:17 | 58.88374 | 17.43569 | 27290 ft | 368 kts | 30° |
| 2026-05-08 09:17 | 58.90559 | 17.46099 | 26875 ft | 364 kts | 31° |
| 2026-05-08 09:18 | 58.92722 | 17.48607 | 26460 ft | 361 kts | 31° |
| 2026-05-08 09:18 | 58.94867 | 17.51098 | 26044 ft | 358 kts | 31° |
| 2026-05-08 09:18 | 58.96277 | 17.52741 | 25766 ft | 357 kts | 31° |
| 2026-05-08 09:18 | 58.98400 | 17.55218 | 25337 ft | 354 kts | 30° |
| 2026-05-08 09:19 | 59.00505 | 17.57675 | 24917 ft | 353 kts | 30° |
| 2026-05-08 09:19 | 59.03284 | 17.60924 | 24350 ft | 351 kts | 30° |
| 2026-05-08 09:19 | 59.05375 | 17.63374 | 23900 ft | 351 kts | 30° |
| 2026-05-08 09:19 | 59.07460 | 17.65818 | 23413 ft | 350 kts | 30° |
| 2026-05-08 09:20 | 59.09536 | 17.68254 | 22966 ft | 347 kts | 30° |
| 2026-05-08 09:20 | 59.10931 | 17.69892 | 22668 ft | 346 kts | 30° |
| 2026-05-08 09:20 | 59.12984 | 17.72306 | 22233 ft | 344 kts | 30° |
| 2026-05-08 09:20 | 59.15023 | 17.74712 | 21787 ft | 342 kts | 30° |
| 2026-05-08 09:21 | 59.17054 | 17.77109 | 21363 ft | 340 kts | 30° |
| 2026-05-08 09:21 | 59.19076 | 17.79500 | 20935 ft | 339 kts | 30° |
| 2026-05-08 09:22 | 59.31093 | 17.93767 | 18365 ft | 336 kts | 29° |
| 2026-05-08 09:23 | 59.33083 | 17.96146 | 17941 ft | 334 kts | 30° |
| 2026-05-08 09:23 | 59.35051 | 17.98503 | 17529 ft | 333 kts | 29° |
| 2026-05-08 09:23 | 59.37022 | 18.00864 | 17120 ft | 331 kts | 30° |
| 2026-05-08 09:23 | 59.38982 | 18.03217 | 16709 ft | 330 kts | 30° |
| 2026-05-08 09:24 | 59.40936 | 18.05566 | 16313 ft | 329 kts | 29° |
| 2026-05-08 09:24 | 59.42885 | 18.07904 | 15906 ft | 328 kts | 30° |
| 2026-05-08 09:24 | 59.44831 | 18.10239 | 15512 ft | 327 kts | 30° |
| 2026-05-08 09:24 | 59.46762 | 18.12566 | 15108 ft | 327 kts | 30° |
| 2026-05-08 09:25 | 59.48701 | 18.14911 | 14702 ft | 327 kts | 30° |
| 2026-05-08 09:25 | 59.50637 | 18.17258 | 14302 ft | 327 kts | 29° |
| 2026-05-08 09:25 | 59.52604 | 18.19490 | 13849 ft | 325 kts | 22° |
| 2026-05-08 09:25 | 59.54726 | 18.20909 | 13405 ft | 321 kts | 9° |
| 2026-05-08 09:26 | 59.56920 | 18.21703 | 12935 ft | 321 kts | 8° |
| 2026-05-08 09:26 | 59.59115 | 18.22485 | 12475 ft | 320 kts | 8° |
| 2026-05-08 09:26 | 59.61306 | 18.23274 | 12002 ft | 320 kts | 8° |
| 2026-05-08 09:26 | 59.63495 | 18.24070 | 11542 ft | 319 kts | 8° |
| 2026-05-08 09:27 | 59.65677 | 18.24867 | 11052 ft | 319 kts | 8° |
| 2026-05-08 09:27 | 59.67853 | 18.25661 | 10645 ft | 316 kts | 9° |
| 2026-05-08 09:27 | 59.69991 | 18.26447 | 10336 ft | 303 kts | 9° |
| 2026-05-08 09:27 | 59.71995 | 18.27185 | 10029 ft | 286 kts | 9° |
| 2026-05-08 09:28 | 59.73926 | 18.27896 | 9421 ft | 279 kts | 9° |
| 2026-05-08 09:28 | 59.75831 | 18.28598 | 8738 ft | 277 kts | 9° |
| 2026-05-08 09:28 | 59.77716 | 18.29292 | 8168 ft | 275 kts | 10° |
| 2026-05-08 09:28 | 59.79613 | 18.29997 | 7599 ft | 280 kts | 10° |
| 2026-05-08 09:29 | 59.81510 | 18.30696 | 7360 ft | 273 kts | 10° |
| 2026-05-08 09:29 | 59.83362 | 18.31366 | 7031 ft | 269 kts | 10° |
| 2026-05-08 09:29 | 59.85201 | 18.32017 | 6639 ft | 268 kts | 10° |
| 2026-05-08 09:29 | 59.87006 | 18.32633 | 6232 ft | 266 kts | 9° |
| 2026-05-08 09:30 | 59.88758 | 18.33140 | 5839 ft | 265 kts | 8° |
| 2026-05-08 09:30 | 59.90578 | 18.33647 | 5444 ft | 264 kts | 8° |
| 2026-05-08 09:30 | 59.92410 | 18.34162 | 5030 ft | 262 kts | 8° |
| 2026-05-08 09:30 | 59.94141 | 18.34652 | 4620 ft | 261 kts | 8° |
| 2026-05-08 09:31 | 59.95976 | 18.34890 | 4179 ft | 260 kts | 351° |
| 2026-05-08 09:31 | 59.97586 | 18.33616 | 3786 ft | 258 kts | 323° |
| 2026-05-08 09:31 | 59.98719 | 18.30835 | 3358 ft | 256 kts | 292° |
| 2026-05-08 09:31 | 59.99005 | 18.27504 | 2919 ft | 254 kts | 263° |
| 2026-05-08 09:32 | 59.98441 | 18.24119 | 2552 ft | 251 kts | 240° |
| 2026-05-08 09:32 | 59.97624 | 18.21160 | 2506 ft | 255 kts | 238° |
| 2026-05-08 09:32 | 59.96741 | 18.18094 | 2519 ft | 256 kts | 237° |
| 2026-05-08 09:32 | 59.95723 | 18.15355 | 2515 ft | 256 kts | 229° |
| 2026-05-08 09:33 | 59.94590 | 18.12661 | 2511 ft | 255 kts | 228° |
| 2026-05-08 09:33 | 59.93484 | 18.10080 | 2501 ft | 253 kts | 227° |
| 2026-05-08 09:33 | 59.92399 | 18.07563 | 2515 ft | 242 kts | 223° |
| 2026-05-08 09:33 | 59.91081 | 18.05727 | 2505 ft | 226 kts | 202° |
| 2026-05-08 09:34 | 59.89642 | 18.04943 | 2506 ft | 207 kts | 188° |
| 2026-05-08 09:34 | 59.88257 | 18.04436 | 2507 ft | 203 kts | 189° |
| 2026-05-08 09:34 | 59.86863 | 18.03924 | 2509 ft | 204 kts | 189° |
| 2026-05-08 09:34 | 59.85473 | 18.03411 | 2505 ft | 203 kts | 189° |
| 2026-05-08 09:35 | 59.84085 | 18.02901 | 2519 ft | 202 kts | 189° |
| 2026-05-08 09:35 | 59.82709 | 18.02396 | 2506 ft | 200 kts | 189° |
| 2026-05-08 09:35 | 59.81374 | 18.01906 | 2502 ft | 191 kts | 189° |
| 2026-05-08 09:35 | 59.80095 | 18.01437 | 2502 ft | 185 kts | 188° |
| 2026-05-08 09:36 | 59.78822 | 18.00971 | 2501 ft | 187 kts | 187° |
| 2026-05-08 09:36 | 59.77546 | 18.00503 | 2512 ft | 182 kts | 188° |
| 2026-05-08 09:36 | 59.76351 | 18.00064 | 2402 ft | 168 kts | 187° |
| 2026-05-08 09:36 | 59.75233 | 17.99655 | 2207 ft | 159 kts | 187° |
| 2026-05-08 09:37 | 59.74172 | 17.99268 | 2004 ft | 152 kts | 187° |
| 2026-05-08 09:37 | 59.73173 | 17.98903 | 1814 ft | 141 kts | 187° |
| 2026-05-08 09:37 | 59.72229 | 17.98559 | 1614 ft | 136 kts | 187° |
| 2026-05-08 09:37 | 59.71306 | 17.98224 | 1418 ft | 134 kts | 186° |
| 2026-05-08 09:38 | 59.70388 | 17.97890 | 1250 ft | 134 kts | 187° |
| 2026-05-08 09:38 | 59.69473 | 17.97557 | 1067 ft | 133 kts | 187° |
| 2026-05-08 09:38 | 59.68573 | 17.97230 | 881 ft | 130 kts | 187° |
| 2026-05-08 09:38 | 59.67679 | 17.96905 | 723 ft | 131 kts | 189° |
| 2026-05-08 09:39 | 59.66782 | 17.96578 | 539 ft | 131 kts | 189° |
| 2026-05-08 09:39 | 59.65891 | 17.96249 | 364 ft | 130 kts | 190° |
| 2026-05-08 09:39 | 59.65001 | 17.95936 | 197 ft | 130 kts | 189° |
| 2026-05-08 09:39 | 59.64154 | 17.95631 | 112 ft | 109 kts | 190° |
| 2026-05-08 09:40 | 59.63585 | 17.95420 | 119 ft | 55 kts | 191° |
| 2026-05-08 09:40 | 59.63380 | 17.95258 | 118 ft | 25 kts | 213° |
| 2026-05-08 09:40 | 59.63261 | 17.95065 | 122 ft | 20 kts | 226° |
| 2026-05-08 09:40 | 59.63289 | 17.94907 | 123 ft | 13 kts | 356° |
| 2026-05-08 09:41 | 59.63381 | 17.94938 | 122 ft | 14 kts | 11° |
| 2026-05-08 09:41 | 59.63483 | 17.94974 | 116 ft | 15 kts | 10° |
| 2026-05-08 09:41 | 59.63593 | 17.95012 | 115 ft | 17 kts | 10° |
| 2026-05-08 09:41 | 59.63711 | 17.95055 | 111 ft | 18 kts | 11° |
| 2026-05-08 09:42 | 59.63831 | 17.95098 | 110 ft | 17 kts | 10° |
| 2026-05-08 09:42 | 59.63944 | 17.95139 | 109 ft | 17 kts | 10° |
| 2026-05-08 09:42 | 59.64055 | 17.95180 | 108 ft | 16 kts | 10° |
| 2026-05-08 09:42 | 59.64162 | 17.95219 | 107 ft | 15 kts | 10° |
| 2026-05-08 09:43 | 59.64308 | 17.95194 | 105 ft | 25 kts | 333° |
| 2026-05-08 09:43 | 59.64400 | 17.94946 | 103 ft | 24 kts | 281° |
| 2026-05-08 09:43 | 59.64357 | 17.94625 | 103 ft | 26 kts | 237° |
| 2026-05-08 09:43 | 59.64258 | 17.94322 | 103 ft | 27 kts | 238° |
| 2026-05-08 09:44 | 59.64158 | 17.94008 | 107 ft | 27 kts | 237° |
| 2026-05-08 09:44 | 59.64060 | 17.93702 | 112 ft | 26 kts | 239° |
| 2026-05-08 09:44 | 59.63986 | 17.93387 | 112 ft | 26 kts | 268° |
| 2026-05-08 09:44 | 59.64052 | 17.93059 | 110 ft | 26 kts | 298° |
| 2026-05-08 09:45 | 59.64133 | 17.92750 | 112 ft | 26 kts | 297° |
| 2026-05-08 09:45 | 59.64215 | 17.92439 | 114 ft | 25 kts | 298° |
| 2026-05-08 09:45 | 59.64297 | 17.92237 | 114 ft | 11 kts | 358° |
| 2026-05-08 09:45 | 59.64348 | 17.92299 | 112 ft | 15 kts | 25° |
| 2026-05-08 09:46 | 59.64444 | 17.92281 | 113 ft | 6 kts | 346° |
| 2026-05-08 09:46 | 59.64457 | 17.92275 | 111 ft | 2 kts | 346° |
| 2026-05-08 09:46 | 59.64461 | 17.92273 | 112 ft | 0 kts | 346° |